Time;durP1;ratioP1;P1;durP2;ratioP2;P2;SDS_P1;SDS_P2;PMS_P1;PMS_P2;Temp;Humidity;BMP_temperature;BMP_pressure;BME280_temperature;BME280_humidity;BME280_pressure;Samples;Min_cycle;Max_cycle;Signal;HPM_P1;HPM_P2
2021/09/02 00:02:16;;;;;;;16.27;12.93;;;13.30;99.90;;;;;;5060129;28;20323;-77
2021/09/02 00:04:43;;;;;;;14.55;13.15;;;13.30;99.90;;;;;;5056593;28;20240;-77
2021/09/02 00:07:10;;;;;;;13.30;11.95;;;13.30;99.90;;;;;;5060213;28;20205;-77
2021/09/02 00:09:39;;;;;;;15.57;12.75;;;13.20;99.90;;;;;;5062379;28;20251;-77
2021/09/02 00:12:06;;;;;;;16.45;13.45;;;13.20;99.90;;;;;;5065343;28;20244;-77
2021/09/02 00:14:35;;;;;;;16.67;12.35;;;13.10;99.90;;;;;;5065714;28;20243;-77
2021/09/02 00:17:02;;;;;;;14.55;12.68;;;13.10;99.90;;;;;;5068525;28;20283;-78
2021/09/02 00:19:29;;;;;;;15.82;13.25;;;13.10;99.90;;;;;;5075195;28;20231;-77
2021/09/02 00:21:59;;;;;;;14.15;12.65;;;13.10;99.90;;;;;;5066375;28;20245;-78
2021/09/02 00:24:25;;;;;;;15.23;13.57;;;13.10;99.90;;;;;;5060918;28;20323;-79
2021/09/02 00:26:54;;;;;;;13.68;12.38;;;13.10;99.90;;;;;;5065034;28;20208;-76
2021/09/02 00:29:21;;;;;;;15.05;12.80;;;13.10;99.90;;;;;;5058038;28;20275;-78
2021/09/02 00:31:48;;;;;;;16.33;14.07;;;13.10;99.90;;;;;;5059586;28;20403;-77
2021/09/02 00:34:14;;;;;;;14.60;13.10;;;13.00;99.90;;;;;;5078979;28;20223;-76
2021/09/02 00:36:41;;;;;;;17.42;13.35;;;13.00;99.90;;;;;;5060408;28;20271;-77
2021/09/02 00:39:08;;;;;;;17.30;14.48;;;13.00;99.90;;;;;;5064881;28;20291;-77
2021/09/02 00:41:35;;;;;;;14.38;12.88;;;13.00;99.90;;;;;;5067149;28;20262;-77
2021/09/02 00:44:04;;;;;;;13.80;12.30;;;13.00;99.90;;;;;;5065155;28;20244;-77
2021/09/02 00:46:31;;;;;;;14.45;12.55;;;13.00;99.90;;;;;;5064215;28;20215;-78
2021/09/02 00:48:58;;;;;;;15.75;14.07;;;13.00;99.90;;;;;;5063367;28;20253;-77
2021/09/02 00:51:29;;;;;;;14.73;13.18;;;13.00;99.90;;;;;;5061441;28;20681;-76
2021/09/02 00:53:57;;;;;;;16.85;13.73;;;12.90;99.90;;;;;;5063942;28;20290;-77
2021/09/02 00:56:25;;;;;;;14.38;12.38;;;13.00;99.90;;;;;;5069951;28;20276;-77
2021/09/02 00:58:52;;;;;;;12.77;11.45;;;12.90;99.90;;;;;;5065163;28;20235;-77
2021/09/02 01:01:21;;;;;;;14.20;12.65;;;12.90;99.90;;;;;;5063302;28;20272;-76
2021/09/02 01:03:48;;;;;;;15.73;13.45;;;12.90;99.90;;;;;;5061715;28;20282;-77
2021/09/02 01:06:16;;;;;;;14.00;11.15;;;12.90;99.90;;;;;;5056981;28;20635;-76
2021/09/02 01:08:44;;;;;;;15.13;11.98;;;12.80;99.90;;;;;;5055657;28;20667;-76
2021/09/02 01:11:11;;;;;;;13.70;12.30;;;12.90;99.90;;;;;;5056517;28;20259;-77
2021/09/02 01:13:38;;;;;;;13.38;11.55;;;12.90;99.90;;;;;;5058039;28;20234;-76
2021/09/02 01:16:05;;;;;;;14.55;12.00;;;12.90;99.90;;;;;;5065257;28;20312;-77
2021/09/02 01:18:33;;;;;;;13.20;11.80;;;12.90;99.90;;;;;;5057360;28;20211;-77
2021/09/02 01:21:00;;;;;;;13.38;11.68;;;12.90;99.90;;;;;;5056295;28;20212;-77
2021/09/02 01:23:28;;;;;;;13.35;11.93;;;12.90;99.90;;;;;;5056909;28;20228;-77
2021/09/02 01:25:55;;;;;;;12.68;11.20;;;12.90;99.90;;;;;;5055976;28;20230;-77
2021/09/02 01:28:22;;;;;;;11.95;10.77;;;12.90;99.90;;;;;;5057642;28;20209;-77
2021/09/02 01:30:49;;;;;;;13.00;11.65;;;12.80;99.90;;;;;;5059165;28;20282;-77
2021/09/02 01:33:17;;;;;;;13.02;11.73;;;12.80;99.90;;;;;;5068118;28;20229;-76
2021/09/02 01:35:45;;;;;;;13.40;11.68;;;12.80;99.90;;;;;;5066698;28;20220;-76
2021/09/02 01:38:12;;;;;;;11.63;10.27;;;12.80;99.90;;;;;;5067300;28;20257;-76
2021/09/02 01:40:42;;;;;;;15.30;11.27;;;12.80;99.90;;;;;;5067017;28;20249;-76
2021/09/02 01:43:12;;;;;;;14.02;11.48;;;12.80;99.90;;;;;;5078934;28;20244;-76
2021/09/02 01:45:39;;;;;;;13.50;11.20;;;12.70;99.90;;;;;;5069667;28;20212;-76
2021/09/02 01:48:07;;;;;;;12.48;11.27;;;12.70;99.90;;;;;;5078771;28;20193;-76
2021/09/02 01:50:36;;;;;;;12.15;10.75;;;12.60;99.90;;;;;;5075599;28;20224;-75
2021/09/02 01:53:06;;;;;;;12.73;11.25;;;12.60;99.90;;;;;;5071006;28;20679;-76
2021/09/02 01:55:33;;;;;;;17.35;12.05;;;12.50;99.90;;;;;;5060779;28;20255;-77
2021/09/02 01:58:02;;;;;;;15.23;10.98;;;12.40;99.90;;;;;;5055949;28;20209;-77
2021/09/02 02:00:29;;;;;;;12.07;10.77;;;12.40;99.90;;;;;;5055224;28;20260;-77
2021/09/02 02:02:56;;;;;;;13.13;11.43;;;12.40;99.90;;;;;;5055176;28;20726;-76
2021/09/02 02:05:23;;;;;;;13.85;11.77;;;12.40;99.90;;;;;;5056234;28;20239;-77
2021/09/02 02:07:50;;;;;;;12.40;11.15;;;12.30;99.90;;;;;;5054881;28;20203;-77
2021/09/02 02:10:22;;;;;;;13.40;12.07;;;12.30;99.90;;;;;;5054622;28;20716;-77
2021/09/02 02:12:49;;;;;;;13.48;12.07;;;12.30;99.90;;;;;;5055202;28;20209;-77
2021/09/02 02:15:17;;;;;;;14.00;12.57;;;12.30;99.90;;;;;;5055223;28;20249;-76
2021/09/02 02:17:44;;;;;;;14.52;12.68;;;12.20;99.90;;;;;;5054589;28;20211;-76
2021/09/02 02:20:13;;;;;;;14.20;12.57;;;12.10;99.90;;;;;;5054367;28;20254;-76
2021/09/02 02:22:40;;;;;;;14.18;12.70;;;12.10;99.90;;;;;;5054292;28;20334;-76
2021/09/02 02:25:09;;;;;;;15.50;12.32;;;12.00;99.90;;;;;;5054719;28;20334;-76
2021/09/02 02:27:36;;;;;;;11.85;10.73;;;11.90;99.90;;;;;;5054631;28;20303;-76
2021/09/02 02:30:03;;;;;;;13.80;12.32;;;11.90;99.90;;;;;;5054053;28;20246;-76
2021/09/02 02:32:32;;;;;;;13.90;12.50;;;11.90;99.90;;;;;;5054333;28;20243;-77
2021/09/02 02:34:59;;;;;;;14.13;12.57;;;11.90;99.90;;;;;;5060636;28;20207;-76
2021/09/02 02:37:26;;;;;;;14.18;12.85;;;11.90;99.90;;;;;;5068780;28;20237;-76
2021/09/02 02:39:53;;;;;;;13.45;12.10;;;11.90;99.90;;;;;;5063020;28;20299;-77
2021/09/02 02:42:20;;;;;;;15.55;13.45;;;11.90;99.90;;;;;;5054319;28;20244;-76
2021/09/02 02:44:47;;;;;;;16.20;13.63;;;12.00;99.90;;;;;;5055006;28;20234;-76
2021/09/02 02:47:13;;;;;;;14.48;13.02;;;11.90;99.90;;;;;;5059756;28;20253;-76
2021/09/02 02:49:42;;;;;;;13.90;12.48;;;11.90;99.90;;;;;;5053616;28;20317;-77
2021/09/02 02:52:09;;;;;;;16.23;14.52;;;11.90;99.90;;;;;;5058246;28;20211;-76
2021/09/02 02:54:37;;;;;;;18.08;13.75;;;11.80;99.90;;;;;;5078248;28;20190;-76
2021/09/02 02:57:04;;;;;;;16.23;14.10;;;11.80;99.90;;;;;;5078070;28;20192;-76
2021/09/02 02:59:31;;;;;;;13.75;12.40;;;11.80;99.90;;;;;;5077725;28;20230;-76
2021/09/02 03:01:58;;;;;;;18.45;13.10;;;11.70;99.90;;;;;;5072687;28;20228;-77
2021/09/02 03:04:25;;;;;;;17.15;13.38;;;11.70;99.90;;;;;;5072744;28;20218;-77
2021/09/02 03:06:53;;;;;;;15.73;14.23;;;11.70;99.90;;;;;;5069051;28;20208;-77
2021/09/02 03:09:20;;;;;;;14.38;12.80;;;11.60;99.90;;;;;;5056199;28;20742;-78
2021/09/02 03:11:47;;;;;;;16.60;14.02;;;11.60;99.90;;;;;;5055974;28;20510;-78
2021/09/02 03:14:14;;;;;;;15.95;13.57;;;11.60;99.90;;;;;;5055627;28;20238;-78
2021/09/02 03:16:41;;;;;;;15.73;14.00;;;11.60;99.90;;;;;;5056229;28;20771;-77
2021/09/02 03:19:08;;;;;;;15.55;12.65;;;11.50;99.90;;;;;;5056345;28;20744;-77
2021/09/02 03:21:34;;;;;;;17.50;13.57;;;11.60;99.90;;;;;;5059916;28;20305;-78
2021/09/02 03:24:03;;;;;;;15.40;13.68;;;11.50;99.90;;;;;;5057407;28;20270;-77
2021/09/02 03:26:30;;;;;;;14.85;13.18;;;11.50;99.90;;;;;;5059444;28;20208;-78
2021/09/02 03:28:57;;;;;;;16.77;13.98;;;11.50;99.90;;;;;;5056392;28;20313;-77
2021/09/02 03:31:24;;;;;;;16.70;13.65;;;11.50;99.90;;;;;;5052948;28;20242;-77
2021/09/02 03:33:51;;;;;;;20.50;13.60;;;11.50;99.90;;;;;;5052730;28;20287;-77
2021/09/02 03:36:18;;;;;;;19.23;14.43;;;11.50;99.90;;;;;;5052677;28;20290;-77
2021/09/02 03:38:45;;;;;;;16.63;14.82;;;11.40;99.90;;;;;;5052631;28;20297;-77
2021/09/02 03:41:13;;;;;;;17.27;15.48;;;11.50;99.90;;;;;;5053730;28;20210;-77
2021/09/02 03:43:40;;;;;;;16.27;14.55;;;11.40;99.90;;;;;;5055260;28;20241;-77
2021/09/02 03:46:07;;;;;;;22.48;16.33;;;11.40;99.90;;;;;;5058624;28;20234;-77
2021/09/02 03:48:34;;;;;;;17.17;15.38;;;11.30;99.90;;;;;;5071011;28;20217;-77
2021/09/02 03:51:01;;;;;;;17.70;14.93;;;11.30;99.90;;;;;;5074929;28;20210;-79
2021/09/02 03:53:28;;;;;;;19.58;15.82;;;11.40;99.90;;;;;;5076920;28;20207;-80
2021/09/02 03:55:55;;;;;;;19.88;14.13;;;11.30;99.90;;;;;;5071205;28;20222;-77
2021/09/02 03:58:23;;;;;;;17.88;15.77;;;11.30;99.90;;;;;;5054500;28;20253;-77
2021/09/02 04:00:50;;;;;;;16.48;14.00;;;11.30;99.90;;;;;;5053427;28;20266;-77
2021/09/02 04:03:17;;;;;;;20.80;13.93;;;11.30;99.90;;;;;;5052547;28;20662;-78
2021/09/02 04:05:43;;;;;;;20.83;15.45;;;11.30;99.90;;;;;;5054821;28;20214;-77
2021/09/02 04:08:10;;;;;;;17.92;14.93;;;11.30;99.90;;;;;;5056789;28;20242;-77
2021/09/02 04:10:37;;;;;;;18.25;15.10;;;11.30;99.90;;;;;;5054471;28;20246;-76
2021/09/02 04:13:04;;;;;;;20.23;15.35;;;11.20;99.90;;;;;;5053716;28;20256;-76
2021/09/02 04:15:32;;;;;;;17.98;14.00;;;11.20;99.90;;;;;;5054491;28;20230;-75
2021/09/02 04:17:59;;;;;;;21.23;15.25;;;11.20;99.90;;;;;;5068938;28;20214;-77
2021/09/02 04:20:26;;;;;;;16.83;15.02;;;11.20;99.90;;;;;;5059037;28;20258;-76
2021/09/02 04:22:53;;;;;;;19.05;15.85;;;11.20;99.90;;;;;;5052470;28;20317;-76
2021/09/02 04:25:20;;;;;;;14.55;12.52;;;11.20;99.90;;;;;;5052902;28;20306;-77
2021/09/02 04:27:47;;;;;;;21.17;15.98;;;11.20;99.90;;;;;;5053931;28;20226;-78
2021/09/02 04:30:14;;;;;;;21.10;15.30;;;11.10;99.90;;;;;;5052252;28;20745;-76
2021/09/02 04:32:43;;;;;;;18.15;14.98;;;11.10;99.90;;;;;;5052889;28;20289;-77
2021/09/02 04:35:11;;;;;;;19.65;15.15;;;11.10;99.90;;;;;;5052491;28;20750;-76
2021/09/02 04:37:38;;;;;;;18.80;15.40;;;11.10;99.90;;;;;;5052181;28;20303;-75
2021/09/02 04:40:07;;;;;;;16.63;14.75;;;11.10;99.90;;;;;;5051711;28;20574;-76
2021/09/02 04:42:34;;;;;;;18.70;15.70;;;11.10;99.90;;;;;;5052153;28;20270;-76
2021/09/02 04:45:02;;;;;;;20.55;15.07;;;11.10;99.90;;;;;;5051974;28;20227;-78
2021/09/02 04:47:29;;;;;;;17.67;14.70;;;11.10;99.90;;;;;;5051936;28;20280;-77
2021/09/02 04:49:57;;;;;;;16.73;14.23;;;11.10;99.90;;;;;;5051849;28;20234;-77
2021/09/02 04:52:24;;;;;;;16.50;14.43;;;11.10;99.90;;;;;;5052103;28;20631;-77
2021/09/02 04:54:51;;;;;;;17.48;13.73;;;11.10;99.90;;;;;;5052570;28;20232;-77
2021/09/02 04:57:19;;;;;;;17.00;14.30;;;11.10;99.90;;;;;;5055651;28;20289;-78
2021/09/02 04:59:47;;;;;;;18.10;15.27;;;11.10;99.90;;;;;;5055626;28;20500;-76
2021/09/02 05:02:14;;;;;;;18.60;15.65;;;11.10;99.90;;;;;;5056140;28;20280;-77
2021/09/02 05:04:41;;;;;;;17.77;13.63;;;11.10;99.90;;;;;;5056062;28;20311;-78
2021/09/02 05:07:10;;;;;;;21.17;16.60;;;11.20;99.90;;;;;;5056003;28;20269;-76
2021/09/02 05:09:36;;;;;;;21.20;16.55;;;11.20;99.90;;;;;;5055155;28;20668;-77
2021/09/02 05:12:07;;;;;;;23.73;16.23;;;11.20;99.90;;;;;;5055655;28;20207;-77
2021/09/02 05:14:34;;;;;;;24.35;17.75;;;11.30;99.90;;;;;;5055971;28;20293;-79
2021/09/02 05:17:01;;;;;;;31.52;19.75;;;11.40;99.90;;;;;;5068989;28;20289;-77
2021/09/02 05:19:28;;;;;;;23.88;17.75;;;11.70;99.90;;;;;;5073981;28;20261;-77
2021/09/02 05:21:55;;;;;;;24.52;17.65;;;12.00;99.90;;;;;;5075123;28;20207;-77
2021/09/02 05:24:23;;;;;;;22.08;15.25;;;12.00;99.90;;;;;;5076081;28;20337;-78
2021/09/02 05:26:50;;;;;;;23.48;15.38;;;12.20;99.90;;;;;;5076102;28;20621;-77
2021/09/02 05:29:17;;;;;;;22.10;13.93;;;12.40;99.90;;;;;;5074997;28;20270;-77
2021/09/02 05:31:44;;;;;;;18.48;13.57;;;12.50;99.90;;;;;;5075588;28;20238;-77
2021/09/02 05:34:11;;;;;;;13.27;11.10;;;12.60;99.90;;;;;;5076042;28;20232;-78
2021/09/02 05:36:38;;;;;;;13.70;11.60;;;12.80;99.90;;;;;;5075745;28;20628;-78
2021/09/02 05:39:06;;;;;;;12.63;11.05;;;13.00;99.90;;;;;;5075476;28;20313;-78
2021/09/02 05:41:34;;;;;;;14.15;9.88;;;13.20;99.90;;;;;;5074765;28;20326;-78
2021/09/02 05:44:01;;;;;;;11.20;9.55;;;13.10;99.90;;;;;;5074584;28;20232;-77
2021/09/02 05:46:27;;;;;;;12.65;10.02;;;13.30;99.90;;;;;;5074901;28;20291;-78
2021/09/02 05:48:54;;;;;;;12.05;10.00;;;13.50;99.40;;;;;;5074700;28;20269;-77
2021/09/02 05:51:21;;;;;;;10.32;9.20;;;13.60;98.30;;;;;;5074656;28;20209;-77
2021/09/02 05:53:48;;;;;;;10.55;9.43;;;13.80;96.00;;;;;;5074698;28;20635;-78
2021/09/02 05:56:21;;;;;;;11.15;9.63;;;13.80;94.70;;;;;;5074730;28;20649;-79
2021/09/02 05:58:49;;;;;;;11.82;9.65;;;13.70;94.10;;;;;;5075312;28;20239;-77
2021/09/02 06:01:16;;;;;;;13.90;9.70;;;13.80;94.00;;;;;;5074643;28;20688;-78
2021/09/02 06:03:43;;;;;;;11.80;9.20;;;13.80;94.70;;;;;;5074750;28;20228;-78
2021/09/02 06:06:10;;;;;;;11.10;10.00;;;14.00;93.80;;;;;;5073967;28;20687;-77
2021/09/02 06:08:39;;;;;;;10.55;9.45;;;13.80;93.50;;;;;;5073910;28;20213;-78
2021/09/02 06:11:06;;;;;;;12.00;10.80;;;13.70;94.60;;;;;;5074348;28;20290;-78
2021/09/02 06:13:34;;;;;;;15.07;10.98;;;13.60;95.90;;;;;;5075422;28;20245;-77
2021/09/02 06:16:03;;;;;;;11.57;10.38;;;13.50;97.10;;;;;;5075566;28;20296;-77
2021/09/02 06:18:30;;;;;;;13.63;12.15;;;13.50;97.00;;;;;;5075758;28;20208;-79
2021/09/02 06:20:57;;;;;;;13.48;11.18;;;13.40;98.10;;;;;;5090126;28;20228;-77
2021/09/02 06:23:24;;;;;;;14.02;11.32;;;13.40;98.20;;;;;;5081486;28;20318;-77
2021/09/02 06:25:51;;;;;;;15.00;11.43;;;13.30;99.60;;;;;;5074588;28;20731;-77
2021/09/02 06:28:18;;;;;;;13.45;11.88;;;13.30;99.90;;;;;;5074478;28;20243;-77
2021/09/02 06:30:46;;;;;;;13.60;10.98;;;13.40;99.90;;;;;;5074079;28;20236;-77
2021/09/02 06:33:15;;;;;;;14.45;10.80;;;13.50;99.90;;;;;;5075338;28;20627;-77
2021/09/02 06:35:42;;;;;;;15.45;11.63;;;13.50;99.50;;;;;;5074634;28;20300;-77
2021/09/02 06:38:09;;;;;;;11.40;10.20;;;13.50;99.40;;;;;;5074506;28;20223;-77
2021/09/02 06:40:36;;;;;;;12.02;10.82;;;13.60;98.90;;;;;;5074318;28;20255;-77
2021/09/02 06:43:04;;;;;;;12.93;10.40;;;13.60;98.60;;;;;;5074716;28;20266;-77
2021/09/02 06:45:31;;;;;;;11.85;10.65;;;13.70;97.80;;;;;;5074115;28;20208;-77
2021/09/02 06:47:58;;;;;;;11.55;10.35;;;13.70;98.20;;;;;;5074470;28;20246;-77
2021/09/02 06:50:26;;;;;;;10.63;9.52;;;13.80;98.20;;;;;;5074772;28;20262;-78
2021/09/02 06:52:53;;;;;;;13.05;10.73;;;14.00;96.90;;;;;;5074487;28;20251;-77
2021/09/02 06:55:20;;;;;;;11.10;9.43;;;13.90;95.40;;;;;;5074965;28;20291;-77
2021/09/02 06:57:47;;;;;;;11.60;10.50;;;13.90;96.20;;;;;;5081458;28;20208;-80
2021/09/02 07:00:15;;;;;;;11.00;9.52;;;14.10;95.90;;;;;;5097637;28;20216;-80
2021/09/02 07:02:42;;;;;;;10.75;9.68;;;14.20;95.10;;;;;;5097430;28;20192;-77
2021/09/02 07:05:10;;;;;;;13.95;9.73;;;14.30;94.90;;;;;;5092759;28;20236;-78
2021/09/02 07:07:38;;;;;;;11.90;10.05;;;14.20;94.40;;;;;;5077209;28;20581;-77
2021/09/02 07:10:06;;;;;;;13.93;11.00;;;14.30;94.20;;;;;;5087711;28;20243;-76
2021/09/02 07:12:33;;;;;;;10.95;9.93;;;14.40;93.60;;;;;;5082650;28;20239;-78
2021/09/02 07:15:00;;;;;;;14.23;9.02;;;14.50;93.10;;;;;;5085959;28;20224;-77
2021/09/02 07:17:27;;;;;;;11.50;9.95;;;14.60;93.20;;;;;;5086455;28;20728;-76
2021/09/02 07:19:54;;;;;;;10.30;9.20;;;14.60;91.00;;;;;;5078171;28;20222;-77
2021/09/02 07:22:21;;;;;;;11.00;9.65;;;14.70;91.10;;;;;;5047762;28;20641;-79
2021/09/02 07:24:49;;;;;;;10.40;8.35;;;14.90;89.30;;;;;;5069501;28;20229;-79
2021/09/02 07:27:16;;;;;;;11.13;8.93;;;15.00;87.60;;;;;;5074234;28;20286;-80
2021/09/02 07:29:43;;;;;;;9.98;8.98;;;15.00;86.10;;;;;;5069392;28;20257;-80
2021/09/02 07:32:10;;;;;;;11.43;9.32;;;15.00;85.80;;;;;;5043912;28;20214;-80
2021/09/02 07:34:37;;;;;;;12.43;8.57;;;15.00;85.60;;;;;;5048556;28;20210;-80
2021/09/02 07:37:04;;;;;;;9.20;7.95;;;15.10;84.80;;;;;;5056177;28;20234;-80
2021/09/02 07:39:31;;;;;;;11.90;8.80;;;15.30;84.40;;;;;;5055097;28;20732;-80
2021/09/02 07:42:00;;;;;;;9.48;8.57;;;15.20;81.00;;;;;;5053974;28;20730;-79
2021/09/02 07:44:26;;;;;;;9.30;8.40;;;15.40;81.20;;;;;;5054135;28;20218;-79
2021/09/02 07:46:53;;;;;;;9.93;8.93;;;15.60;81.40;;;;;;5054749;28;20285;-80
2021/09/02 07:49:20;;;;;;;10.20;8.40;;;15.70;78.10;;;;;;5052913;28;20253;-80
2021/09/02 07:51:47;;;;;;;9.82;7.40;;;15.70;77.90;;;;;;5054331;28;20288;-79
2021/09/02 07:54:14;;;;;;;8.73;7.80;;;15.90;79.00;;;;;;5060079;28;20237;-81
2021/09/02 07:56:41;;;;;;;10.85;7.43;;;15.90;75.70;;;;;;5055176;28;20221;-79
2021/09/02 07:59:09;;;;;;;9.25;7.68;;;16.10;75.10;;;;;;5055528;28;20470;-80
2021/09/02 08:01:36;;;;;;;11.10;8.80;;;16.10;73.40;;;;;;5058209;28;20239;-79
2021/09/02 08:04:04;;;;;;;8.17;7.37;;;16.20;75.70;;;;;;5060747;28;20222;-82
2021/09/02 08:06:31;;;;;;;9.17;7.33;;;16.40;73.80;;;;;;5057883;28;20510;-80
2021/09/02 08:08:58;;;;;;;8.80;7.83;;;16.60;73.60;;;;;;5055402;28;20478;-79
2021/09/02 08:11:27;;;;;;;7.90;7.10;;;16.70;72.30;;;;;;5054209;28;20490;-78
2021/09/02 08:13:54;;;;;;;7.90;7.10;;;16.80;71.80;;;;;;5056026;28;20849;-79
2021/09/02 08:16:24;;;;;;;8.60;7.27;;;17.00;71.70;;;;;;5056788;28;20460;-79
2021/09/02 08:18:51;;;;;;;6.93;6.23;;;17.10;69.50;;;;;;5057605;28;20440;-79
2021/09/02 08:21:19;;;;;;;8.83;7.00;;;17.30;69.80;;;;;;5056888;28;20432;-79
2021/09/02 08:23:46;;;;;;;7.60;6.90;;;17.40;66.50;;;;;;5056848;28;20478;-79
2021/09/02 08:26:13;;;;;;;7.37;6.67;;;17.50;65.50;;;;;;5056861;28;20528;-79
2021/09/02 08:28:40;;;;;;;9.40;6.40;;;17.50;63.20;;;;;;5054595;28;20446;-78
2021/09/02 08:31:07;;;;;;;7.47;6.50;;;17.40;64.20;;;;;;5058105;28;20924;-80
2021/09/02 08:33:36;;;;;;;8.90;6.50;;;17.60;63.90;;;;;;5060544;28;20493;-80
2021/09/02 08:36:03;;;;;;;7.77;6.97;;;17.80;62.90;;;;;;5065879;28;20459;-80
2021/09/02 08:38:30;;;;;;;7.33;6.60;;;17.90;61.60;;;;;;5059842;28;20853;-79
2021/09/02 08:40:57;;;;;;;8.70;6.23;;;18.10;61.30;;;;;;5059017;28;20488;-80
2021/09/02 08:43:25;;;;;;;7.10;5.63;;;18.30;60.40;;;;;;5057548;28;20487;-79
2021/09/02 08:45:52;;;;;;;7.03;6.33;;;18.50;58.30;;;;;;5051419;28;20771;-77
2021/09/02 08:48:20;;;;;;;6.90;6.20;;;18.50;57.20;;;;;;5036011;28;20503;-78
2021/09/02 08:50:48;;;;;;;7.10;6.40;;;18.40;57.10;;;;;;5046616;28;21066;-78
2021/09/02 08:53:15;;;;;;;7.50;5.33;;;18.50;57.20;;;;;;5060338;28;20985;-79
2021/09/02 08:55:42;;;;;;;6.90;6.20;;;18.50;57.20;;;;;;5060325;28;20518;-78
2021/09/02 08:58:09;;;;;;;6.50;5.80;;;18.70;57.40;;;;;;5062731;28;20475;-78
2021/09/02 09:00:36;;;;;;;7.93;6.40;;;18.60;57.30;;;;;;5059020;28;21079;-78
2021/09/02 09:03:05;;;;;;;6.53;5.93;;;18.70;57.40;;;;;;5046805;28;20962;-79
2021/09/02 09:05:32;;;;;;;6.47;5.87;;;19.10;57.80;;;;;;5042472;28;20490;-78
2021/09/02 09:08:03;;;;;;;5.90;5.30;;;19.00;54.60;;;;;;5053554;28;20481;-77
2021/09/02 09:10:31;;;;;;;6.60;5.90;;;19.00;55.50;;;;;;5056430;28;20476;-77
2021/09/02 09:12:59;;;;;;;6.20;5.60;;;19.10;54.70;;;;;;5051784;28;20529;-78
2021/09/02 09:15:27;;;;;;;7.37;6.00;;;19.20;55.20;;;;;;5057383;28;20455;-79
2021/09/02 09:17:56;;;;;;;5.97;5.37;;;19.40;54.90;;;;;;5065044;28;20457;-78
2021/09/02 09:20:24;;;;;;;7.13;6.07;;;19.50;53.40;;;;;;5057052;28;20568;-77
2021/09/02 09:22:57;;;;;;;7.70;5.60;;;19.60;54.00;;;;;;5055606;28;20904;-78
2021/09/02 09:25:26;;;;;;;6.23;5.63;;;19.70;53.00;;;;;;5054708;28;20492;-79
2021/09/02 09:27:57;;;;;;;6.70;5.90;;;19.80;51.60;;;;;;5054562;28;20419;-78
2021/09/02 09:30:25;;;;;;;8.70;5.63;;;19.90;51.60;;;;;;5079039;22;20478;-80
2021/09/02 09:32:54;;;;;;;6.40;5.80;;;20.00;48.90;;;;;;5044259;28;20465;-79
2021/09/02 09:35:23;;;;;;;6.50;5.90;;;20.00;49.30;;;;;;5059908;28;20450;-80
2021/09/02 09:38:02;;;;;;;7.10;5.87;;;20.00;48.90;;;;;;5050961;28;20907;-76
2021/09/02 09:40:30;;;;;;;8.50;5.43;;;20.20;49.00;;;;;;5052277;28;20484;-78
2021/09/02 09:43:01;;;;;;;6.30;5.70;;;20.10;49.00;;;;;;5045059;28;20502;-78
2021/09/02 09:45:40;;;;;;;5.73;5.13;;;20.10;46.50;;;;;;5037672;28;20464;-79
2021/09/02 09:48:32;;;;;;;6.33;5.73;;;20.40;49.20;;;;;;5036298;28;20462;-78
2021/09/02 09:51:08;;;;;;;4.90;4.50;;;20.60;47.80;;;;;;5035918;28;20470;-77
2021/09/02 09:53:36;;;;;;;6.67;5.13;;;20.60;46.30;;;;;;5036139;28;20540;-78
2021/09/02 09:56:05;;;;;;;7.57;5.10;;;20.60;46.10;;;;;;5035550;28;21027;-76
2021/09/02 09:58:32;;;;;;;7.53;5.10;;;20.60;46.50;;;;;;5035209;28;21143;-77
2021/09/02 10:01:01;;;;;;;5.27;4.77;;;20.50;45.70;;;;;;5035167;28;20518;-77
2021/09/02 10:03:30;;;;;;;5.13;4.73;;;20.70;45.70;;;;;;5035267;28;20432;-77
2021/09/02 10:06:00;;;;;;;6.83;5.07;;;21.10;45.80;;;;;;5037150;28;20447;-76
2021/09/02 10:08:27;;;;;;;6.47;5.30;;;21.10;44.60;;;;;;5049744;28;20461;-76
2021/09/02 10:10:54;;;;;;;5.63;4.80;;;21.20;44.20;;;;;;5049752;28;20850;-76
2021/09/02 10:13:24;;;;;;;5.93;5.30;;;21.10;44.90;;;;;;5036128;28;20436;-77
2021/09/02 10:15:53;;;;;;;5.90;5.30;;;21.10;44.70;;;;;;5042307;28;20950;-76
2021/09/02 10:18:20;;;;;;;5.10;4.60;;;21.20;43.20;;;;;;5050518;28;20486;-77
2021/09/02 10:20:48;;;;;;;5.70;5.10;;;21.10;42.60;;;;;;5044401;28;20453;-78
2021/09/02 10:23:23;;;;;;;5.27;4.77;;;21.10;43.10;;;;;;5053348;28;20465;-77
2021/09/02 10:25:50;;;;;;;5.50;4.37;;;21.20;41.90;;;;;;5052001;28;20443;-76
2021/09/02 10:28:26;;;;;;;5.40;4.90;;;21.40;42.90;;;;;;5037049;28;20797;-77
2021/09/02 10:30:55;;;;;;;8.93;4.80;;;21.50;42.00;;;;;;5042146;28;20486;-76
2021/09/02 10:33:40;;;;;;;7.63;5.47;;;21.40;42.30;;;;;;5053581;28;20462;-76
2021/09/02 10:36:42;;;;;;;6.17;5.57;;;21.60;42.40;;;;;;5053966;28;20461;-76
2021/09/02 10:39:10;;;;;;;6.83;6.10;;;21.60;41.60;;;;;;4984364;28;20447;-76
2021/09/02 10:41:54;;;;;;;5.70;5.20;;;21.80;42.00;;;;;;4975735;28;20492;-77
2021/09/02 10:44:23;;;;;;;7.10;5.90;;;21.60;40.30;;;;;;4976488;28;20574;-77
2021/09/02 10:46:52;;;;;;;6.10;5.23;;;21.60;40.30;;;;;;4975706;28;20519;-77
2021/09/02 10:49:27;;;;;;;6.90;6.20;;;21.80;39.20;;;;;;4978579;28;21013;-77
2021/09/02 10:51:56;;;;;;;7.70;5.77;;;21.90;39.20;;;;;;4975260;28;20493;-76
2021/09/02 10:54:27;;;;;;;8.00;5.40;;;21.80;39.60;;;;;;4972298;28;20492;-76
2021/09/02 10:57:06;;;;;;;8.00;5.50;;;21.70;38.40;;;;;;4972347;28;20445;-76
2021/09/02 10:59:53;;;;;;;6.30;5.70;;;22.00;37.90;;;;;;4972135;28;20475;-76
2021/09/02 11:02:46;;;;;;;7.93;5.27;;;21.90;38.00;;;;;;4976935;28;20423;-77
2021/09/02 11:05:16;;;;;;;6.30;4.90;;;21.90;38.20;;;;;;4940185;28;20472;-78
2021/09/02 11:07:45;;;;;;;5.97;5.37;;;22.10;39.10;;;;;;4975046;28;20437;-77
2021/09/02 11:10:18;;;;;;;6.20;5.60;;;22.30;37.10;;;;;;5025318;28;20490;-77
2021/09/02 11:12:46;;;;;;;5.67;5.10;;;22.20;35.70;;;;;;5059432;28;20504;-78
2021/09/02 11:15:23;;;;;;;5.40;4.73;;;22.20;35.90;;;;;;5040171;28;20469;-78
2021/09/02 11:17:55;;;;;;;6.70;5.70;;;22.60;36.10;;;;;;5034741;28;20921;-78
2021/09/02 11:20:24;;;;;;;5.63;5.13;;;22.60;34.70;;;;;;5034852;28;20964;-78
2021/09/02 11:22:52;;;;;;;10.60;4.80;;;22.60;35.50;;;;;;5043497;28;20456;-77
2021/09/02 11:25:19;;;;;;;8.30;4.97;;;22.50;34.80;;;;;;5050634;28;20924;-77
2021/09/02 11:27:46;;;;;;;5.60;5.00;;;22.70;34.50;;;;;;5041850;28;20870;-76
2021/09/02 11:30:24;;;;;;;9.43;5.40;;;22.90;34.50;;;;;;5034791;28;20459;-77
2021/09/02 11:32:59;;;;;;;6.40;5.80;;;22.70;34.80;;;;;;5037874;28;20464;-77
2021/09/02 11:35:27;;;;;;;5.73;5.13;;;22.90;35.00;;;;;;5035051;28;20544;-76
2021/09/02 11:37:54;;;;;;;5.73;4.70;;;22.90;34.90;;;;;;5049085;28;20461;-76
2021/09/02 11:40:23;;;;;;;7.83;4.87;;;22.90;33.60;;;;;;5056548;28;20450;-76
2021/09/02 11:42:51;;;;;;;5.63;5.03;;;22.90;34.20;;;;;;5057522;28;20949;-76
2021/09/02 11:45:19;;;;;;;5.40;4.90;;;22.90;34.50;;;;;;5059512;28;20471;-77
2021/09/02 11:47:49;;;;;;;6.23;5.63;;;23.20;34.70;;;;;;5057174;28;20429;-77
2021/09/02 11:50:17;;;;;;;5.57;5.00;;;22.90;34.50;;;;;;5054734;28;20464;-76
2021/09/02 11:52:46;;;;;;;5.70;5.20;;;22.50;35.60;;;;;;5074622;28;20454;-77
2021/09/02 11:55:30;;;;;;;6.23;5.60;;;22.50;35.00;;;;;;5062384;28;20424;-79
2021/09/02 11:57:59;;;;;;;8.17;5.50;;;22.60;35.90;;;;;;5077178;28;20431;-78
2021/09/02 12:00:27;;;;;;;5.67;4.93;;;22.80;35.20;;;;;;5063971;28;20470;-77
2021/09/02 12:02:56;;;;;;;6.87;5.37;;;22.90;36.10;;;;;;5053496;28;20462;-77
2021/09/02 12:05:26;;;;;;;5.07;4.57;;;23.30;35.70;;;;;;5056182;28;20488;-76
2021/09/02 12:07:56;;;;;;;7.87;5.43;;;23.70;34.60;;;;;;5059162;28;20488;-77
2021/09/02 12:10:23;;;;;;;5.47;4.70;;;23.10;33.80;;;;;;5053425;28;20575;-76
2021/09/02 12:12:50;;;;;;;5.30;4.80;;;23.00;34.90;;;;;;5036565;28;20943;-76
2021/09/02 12:15:27;;;;;;;6.40;5.80;;;23.10;35.60;;;;;;5037768;28;20617;-78
2021/09/02 12:18:09;;;;;;;6.60;6.00;;;23.10;34.90;;;;;;5037195;28;20435;-77
2021/09/02 12:20:37;;;;;;;7.80;5.97;;;23.00;35.60;;;;;;5036478;28;20594;-76
2021/09/02 12:23:21;;;;;;;8.07;5.77;;;23.00;36.40;;;;;;5037281;28;20540;-77
2021/09/02 12:25:57;;;;;;;6.33;5.73;;;23.30;35.70;;;;;;5018406;28;20485;-77
2021/09/02 12:28:32;;;;;;;8.13;6.20;;;23.10;35.80;;;;;;5019270;28;20455;-78
2021/09/02 12:30:59;;;;;;;6.53;5.77;;;23.00;36.10;;;;;;5017353;28;20487;-78
2021/09/02 12:33:27;;;;;;;6.00;5.40;;;23.00;35.90;;;;;;5021128;28;20485;-76
2021/09/02 12:35:54;;;;;;;6.10;5.37;;;23.20;35.50;;;;;;5017061;28;20528;-76
2021/09/02 12:38:37;;;;;;;5.80;5.30;;;23.20;35.20;;;;;;5016300;28;20554;-76
2021/09/02 12:41:14;;;;;;;6.67;5.43;;;23.30;34.40;;;;;;5016375;28;20503;-74
2021/09/02 12:43:59;;;;;;;6.57;5.87;;;23.10;35.00;;;;;;5023099;28;20431;-75